Historical Data

TheSutherlands

Weather at Humberside Airport

Current Weather from Humberside Airport

The information displayed on this page is from the METAR reports produced by Humberside Airport. Note that there are times when these are not generated.

Weather Report

Coded Weather Report: 2020/02/24 16:20 EGNJ 241620Z 26023G35KT 9999 FEW022 BKN030 13/07 Q0995

Report issued: 2020/02/24 at 16:20 UTC

Wind: strong breeze from the west (260 degrees) at 23 knots (26 mph, 43 kph, Force 6) gusting to 35 knots (40 mph 65 kph)
Visibility: 10km or more
Cloud: a few clouds at 2200 feet
Cloud: broken at 3000 feet
Temperature: 13 C
Dewpoint: 7 C
Humidity: 67%
Pressure: 0995 hPa